M I D A S
Marine Information and Data Acquisition System
Tripno 2228 of the Zeeleeuw from 2011-10-10 06:46:27 to 2011-10-10 09:52:16
Back to CruiseResearch ActivitiesStationsMapUnderway DataData graphs

EquipmentUnitsComment
TimeDGPSUTC
LatitudeDGPSDM.mWGS84
LongitudeDGPSDM.mWGS84
HeadingGyrodeg 
SOGDGPSknotsSpeed over ground
COGDGPSdegCourse over ground
DepthEcho soundermeters200 kHz
Missing or incorrect values are displayed as -999
Navigation data collected by the RV Zeeleeuw from 2011-10-10 06:42:49 to 2011-10-10 10:20:33
Time Latitude Longitude Heading SOG COG Depth
2011-10-10 06:43:58 51°13.655 2°55.937 103.8 3.4 288 -999
2011-10-10 06:44:57 51°13.665 2°55.888 103 2.2 289 4.9
2011-10-10 06:45:58 51°13.679 2°55.804 98.2 3.9 282 -999
2011-10-10 06:46:57 51°13.687 2°55.746 71 1.1 41 11.7
2011-10-10 06:47:57 51°13.686 2°55.75 16.8 0.2 148 -999
2011-10-10 06:48:58 51°13.751 2°55.699 327.6 7.1 331 11.2
2011-10-10 06:49:56 51°13.87 2°55.604 335.4 8.8 337 11.3
2011-10-10 06:50:54 51°14.006 2°55.512 337 9.5 337 11.2
2011-10-10 06:51:54 51°14.153 2°55.407 333.2 9.7 333 10.8
2011-10-10 06:52:56 51°14.301 2°55.28 330.3 10 330 -999
2011-10-10 06:53:58 51°14.453 2°55.138 324.8 10.6 328 10.2
2011-10-10 06:54:55 51°14.603 2°54.981 322 11.4 325 12.3
2011-10-10 06:55:57 51°14.755 2°54.809 318.2 10.6 313 11.1
2011-10-10 06:56:57 51°14.774 2°54.559 250.1 10.1 243 10.6
2011-10-10 06:57:55 51°14.653 2°54.37 221.1 11 222 9.9
2011-10-10 06:58:54 51°14.521 2°54.179 221.9 10.8 225 9.6
2011-10-10 06:59:54 51°14.396 2°53.962 228.6 11.4 228 9.9
2011-10-10 07:00:55 51°14.268 2°53.735 228.3 11.3 228 9.7
2011-10-10 07:01:54 51°14.146 2°53.51 231.6 11.3 233 9.6
2011-10-10 07:02:54 51°14.03 2°53.275 231.9 11.5 232 9.3
2011-10-10 07:03:54 51°13.917 2°53.042 232.9 11.1 233 9.6
2011-10-10 07:04:54 51°13.808 2°52.807 235 11 236 9.3
2011-10-10 07:05:54 51°13.706 2°52.557 238.6 11.3 234 11.5
2011-10-10 07:06:56 51°13.601 2°52.305 237.5 10.9 237 10.7
2011-10-10 07:07:54 51°13.502 2°52.059 237.8 11.4 238 10.2
2011-10-10 07:08:54 51°13.405 2°51.797 238 11.5 238 10.4
2011-10-10 07:09:54 51°13.302 2°51.543 238.1 11.5 238 10.1
2011-10-10 07:10:54 51°13.202 2°51.283 237 11.2 236 10
2011-10-10 07:11:54 51°13.101 2°51.028 237.9 11.2 239 11.2
2011-10-10 07:12:54 51°12.999 2°50.774 238.3 11.4 235 10.8
2011-10-10 07:13:54 51°12.894 2°50.52 237.4 11.6 237 11
2011-10-10 07:14:54 51°12.794 2°50.263 238.4 11.7 238 10.5
2011-10-10 07:15:54 51°12.691 2°50.008 238 11.5 237 10.7
2011-10-10 07:16:54 51°12.587 2°49.749 237.8 11.3 238 10.7
2011-10-10 07:17:54 51°12.488 2°49.486 241.5 11.8 241 9.7
2011-10-10 07:18:54 51°12.393 2°49.218 242.3 11.7 241 10.6
2011-10-10 07:19:54 51°12.305 2°48.941 244.1 11.7 245 10.3
2011-10-10 07:20:54 51°12.219 2°48.663 244.8 11.5 244 10.8
2011-10-10 07:21:54 51°12.135 2°48.389 245.9 11.7 244 10.6
2011-10-10 07:22:54 51°12.053 2°48.117 245.4 11.6 243 10.9
2011-10-10 07:23:54 51°11.97 2°47.84 246.7 11.7 245 11.3
2011-10-10 07:24:54 51°11.891 2°47.556 245.7 11.7 245 10.9
2011-10-10 07:25:54 51°11.804 2°47.285 243.3 11.3 242 11.2
2011-10-10 07:26:54 51°11.719 2°47.017 245.3 11.4 245 10.8
2011-10-10 07:27:54 51°11.639 2°46.743 246.5 11.5 247 10.6
2011-10-10 07:28:54 51°11.557 2°46.465 245.9 11.6 244 10.7
2011-10-10 07:29:54 51°11.476 2°46.192 248.4 11.2 248 11.1
2011-10-10 07:30:54 51°11.409 2°45.911 251.6 11.5 249 10.4
2011-10-10 07:31:54 51°11.341 2°45.626 250.2 11.7 249 10.8
2011-10-10 07:32:54 51°11.268 2°45.349 247.3 11.6 245 10.7
2011-10-10 07:33:54 51°11.194 2°45.072 249.8 11.3 248 11
2011-10-10 07:34:54 51°11.135 2°44.785 258.5 11.2 257 11.1
2011-10-10 07:35:54 51°11.103 2°44.496 261.3 11.2 260 11.8
2011-10-10 07:36:54 51°11.07 2°44.202 261.3 11.1 259 12.6
2011-10-10 07:37:54 51°11.029 2°43.914 258.5 11.1 255 11.9
2011-10-10 07:38:54 51°11.004 2°43.619 270.5 11.2 270 12.9
2011-10-10 07:39:54 51°11.007 2°43.321 270.8 10.9 268 12.1
2011-10-10 07:40:54 51°11.003 2°43.029 271.1 11.1 271 12.4
2011-10-10 07:41:54 51°11.011 2°42.741 273.2 9.9 272 13.3
2011-10-10 07:42:54 51°11.015 2°42.528 272 7.5 271 13.1
2011-10-10 07:43:54 51°11.021 2°42.342 273.8 7.1 273 13.2
2011-10-10 07:44:54 51°11.026 2°42.223 272.4 2.9 273 13
2011-10-10 07:45:54 51°11.034 2°42.173 276.7 1.6 288 13.2
2011-10-10 07:46:55 51°11.049 2°42.144 289.7 1.3 329 12.6
2011-10-10 07:47:56 51°11.064 2°42.153 316.6 1.1 52 13.7
2011-10-10 07:48:54 51°11.068 2°42.174 347.9 0.8 81 13
2011-10-10 07:49:54 51°11.069 2°42.199 359.6 0.9 92 13.2
2011-10-10 07:50:54 51°11.069 2°42.224 2.1 0.8 86 12.7
2011-10-10 07:51:54 51°11.068 2°42.248 358.6 1 97 13.2
2011-10-10 07:52:54 51°11.068 2°42.276 356.5 0.5 91 13.5
2011-10-10 07:53:54 51°11.07 2°42.301 355.7 1.3 88 13.6
2011-10-10 07:54:54 51°11.07 2°42.326 355 0.7 93 12.7
2011-10-10 07:55:54 51°11.069 2°42.352 357.4 0.9 96 13.2
2011-10-10 07:56:54 51°11.068 2°42.376 357.5 1.4 86 13.7
2011-10-10 07:57:54 51°11.068 2°42.402 354.8 1 87 13.3
2011-10-10 07:58:54 51°11.068 2°42.429 351.8 1 92 13
2011-10-10 07:59:54 51°11.068 2°42.455 350.6 1.2 91 13.7
2011-10-10 08:00:54 51°11.068 2°42.478 351.4 0.7 86 13.9
2011-10-10 08:01:54 51°11.068 2°42.502 354 0.4 82 13.4
2011-10-10 08:02:54 51°11.074 2°42.526 355.7 1.7 24 13.5
2011-10-10 08:03:55 51°11.123 2°42.611 76.1 5.7 84 13.1
2011-10-10 08:04:54 51°11.096 2°42.819 98.4 10.4 94 13.2
2011-10-10 08:05:54 51°11.118 2°43.126 78.2 12.1 78 13.2
2011-10-10 08:06:54 51°11.164 2°43.434 77.5 12.7 80 13.6
2011-10-10 08:07:54 51°11.206 2°43.745 76.6 12.2 77 13.3
2011-10-10 08:08:54 51°11.245 2°44.063 78.7 12.5 79 13.2
2011-10-10 08:09:54 51°11.284 2°44.374 78.9 12.1 81 13.1
2011-10-10 08:10:54 51°11.326 2°44.685 73.5 12.6 70 13.5
2011-10-10 08:11:54 51°11.367 2°44.997 77.5 11.6 82 12.9
2011-10-10 08:12:54 51°11.412 2°45.308 71.7 12 77 12.7
2011-10-10 08:13:54 51°11.484 2°45.604 67.4 11.9 70 12.5
2011-10-10 08:14:54 51°11.565 2°45.902 65.3 12.2 64 13
2011-10-10 08:15:54 51°11.638 2°46.199 67.1 11.5 69 12.4
2011-10-10 08:16:54 51°11.717 2°46.496 65.8 12.8 64 13.1
2011-10-10 08:17:54 51°11.79 2°46.793 65.4 11.8 71 12.4
2011-10-10 08:18:54 51°11.878 2°47.079 59.7 12.1 67 12.6
2011-10-10 08:19:54 51°11.96 2°47.371 70.1 12.3 72 13
2011-10-10 08:20:54 51°12.028 2°47.677 71.6 12.2 72 12.1
2011-10-10 08:21:54 51°12.094 2°47.994 70.7 13.1 75 12.3
2011-10-10 08:22:54 51°12.178 2°48.288 56.6 11.8 62 11.8
2011-10-10 08:23:54 51°12.288 2°48.57 58.1 12.6 58 12.2
2011-10-10 08:24:54 51°12.383 2°48.857 63.2 12 69 12
2011-10-10 08:25:54 51°12.475 2°49.144 64.8 12.1 71 11.9
2011-10-10 08:26:55 51°12.57 2°49.44 52.7 11.1 65 -999
2011-10-10 08:27:54 51°12.672 2°49.722 58.5 12.1 62 11.6
2011-10-10 08:28:54 51°12.757 2°49.996 64.5 10.8 65 11.4
2011-10-10 08:29:54 51°12.84 2°50.247 59.9 10.6 63 11.7
2011-10-10 08:30:54 51°12.929 2°50.505 58.2 11.1 60 11.6
2011-10-10 08:31:54 51°13.027 2°50.774 58 12.1 63 11.5
2011-10-10 08:32:54 51°13.132 2°51.046 55.9 12.6 51 11.9
2011-10-10 08:33:54 51°13.238 2°51.324 61 12.8 56 11.8
2011-10-10 08:34:54 51°13.34 2°51.602 59.8 12.7 62 11.7
2011-10-10 08:35:55 51°13.441 2°51.888 54.8 11.3 67 -999
2011-10-10 08:36:54 51°13.544 2°52.162 55 11.9 57 10.9
2011-10-10 08:37:55 51°13.659 2°52.44 55.9 11.8 56 10.8
2011-10-10 08:38:54 51°13.76 2°52.719 56 12.9 51 10.8
2011-10-10 08:39:54 51°13.857 2°53.012 59.5 12.8 60 11.1
2011-10-10 08:40:54 51°13.986 2°53.265 50.9 12.6 55 10.8
2011-10-10 08:41:54 51°14.121 2°53.512 47.1 12.4 49 10.3
2011-10-10 08:42:54 51°14.251 2°53.767 49.3 12.8 47 11.2
2011-10-10 08:43:54 51°14.411 2°53.962 25.5 12.3 30 10.8
2011-10-10 08:44:54 51°14.599 2°54.075 16.2 12.3 24 11.2
2011-10-10 08:45:54 51°14.791 2°54.174 11 12.2 18 11.1
2011-10-10 08:46:54 51°14.985 2°54.264 13.2 12.3 12 10
2011-10-10 08:47:55 51°15.179 2°54.362 13.7 12.3 19 11
2011-10-10 08:48:54 51°15.367 2°54.453 10.2 11.9 13 10
2011-10-10 08:49:54 51°15.562 2°54.502 359.8 11.5 1 10.7
2011-10-10 08:50:54 51°15.751 2°54.483 342.7 11.4 351 11.4
2011-10-10 08:51:54 51°15.93 2°54.401 334.7 11 340 11.8
2011-10-10 08:52:54 51°16.104 2°54.33 339.2 10.2 349 12.1
2011-10-10 08:53:54 51°16.222 2°54.291 333.7 4.9 354 12.6
2011-10-10 08:54:54 51°16.273 2°54.299 329.3 2.3 26 12.8
2011-10-10 08:55:54 51°16.293 2°54.339 332.3 2 60 12.7
2011-10-10 08:56:54 51°16.305 2°54.39 340.5 1.7 76 12.6
2011-10-10 08:57:54 51°16.314 2°54.446 346.3 2.3 74 12.7
2011-10-10 08:58:54 51°16.323 2°54.498 349.4 2 76 12.6
2011-10-10 08:59:54 51°16.333 2°54.548 349.3 1.8 69 12.9
2011-10-10 09:00:54 51°16.344 2°54.601 349.9 2.6 72 13.1
2011-10-10 09:01:54 51°16.356 2°54.655 348.3 2.3 73 12.7
2011-10-10 09:02:54 51°16.366 2°54.712 348.4 2.8 77 12.3
2011-10-10 09:03:54 51°16.375 2°54.766 350.1 2.2 76 13.2
2011-10-10 09:04:54 51°16.384 2°54.822 355.4 1.7 77 12.1
2011-10-10 09:05:54 51°16.392 2°54.883 355 2.9 82 12.5
2011-10-10 09:06:54 51°16.4 2°54.939 353.8 2 75 12.1
2011-10-10 09:07:54 51°16.409 2°54.998 349.7 2.5 75 12.5
2011-10-10 09:08:54 51°16.419 2°55.057 355.1 2.6 75 12
2011-10-10 09:09:54 51°16.429 2°55.116 350.3 1.9 75 12.7
2011-10-10 09:10:54 51°16.438 2°55.176 349 2.5 81 12.4
2011-10-10 09:11:54 51°16.446 2°55.235 350.4 2.2 76 12.6
2011-10-10 09:12:54 51°16.453 2°55.293 349.7 2.7 77 12.4
2011-10-10 09:13:54 51°16.462 2°55.35 352.8 1.7 77 12.2
2011-10-10 09:14:54 51°16.471 2°55.414 358.9 2.9 81 11.8
2011-10-10 09:15:54 51°16.481 2°55.473 354.9 2.3 74 12.2
2011-10-10 09:16:54 51°16.494 2°55.532 350.4 2.4 73 11.9
2011-10-10 09:17:54 51°16.505 2°55.593 351.3 3.1 76 12.2
2011-10-10 09:18:54 51°16.534 2°55.635 322.2 3.3 356 12.1
2011-10-10 09:19:55 51°16.556 2°55.58 247.8 2.7 245 13.2
2011-10-10 09:20:55 51°16.511 2°55.471 243.2 6.6 242 12.2
2011-10-10 09:21:54 51°16.465 2°55.291 250.9 7.9 250 13.3
2011-10-10 09:22:54 51°16.421 2°55.102 248.3 7.3 246 -999
2011-10-10 09:23:54 51°16.374 2°54.91 250.5 7.8 252 12
2011-10-10 09:24:54 51°16.337 2°54.716 252.1 7.8 253 13.2
2011-10-10 09:25:55 51°16.289 2°54.519 247.4 7 249 -999
2011-10-10 09:26:55 51°16.249 2°54.34 250.5 5.1 253 12.6
2011-10-10 09:27:54 51°16.244 2°54.297 256.4 0.4 286 12.8
2011-10-10 09:28:54 51°16.264 2°54.332 305.7 3 61 13.5
2011-10-10 09:29:54 51°16.285 2°54.398 339.7 2.9 70 13.2
2011-10-10 09:30:54 51°16.301 2°54.467 357.2 2.8 70 13.4
2011-10-10 09:31:54 51°16.315 2°54.538 358.8 3.3 72 13.9
2011-10-10 09:32:54 51°16.331 2°54.608 357.9 2.9 71 14
2011-10-10 09:33:54 51°16.347 2°54.679 355.8 2.8 71 13.2
2011-10-10 09:34:54 51°16.363 2°54.753 352.3 2.9 71 12.8
2011-10-10 09:35:54 51°16.385 2°54.825 345.5 3.2 42 13.2
2011-10-10 09:36:54 51°16.433 2°54.834 287.7 2.6 331 13.8
2011-10-10 09:37:54 51°16.432 2°54.769 243.5 3.4 241 13.6
2011-10-10 09:38:54 51°16.393 2°54.703 240.3 3.1 234 13.2
2011-10-10 09:39:54 51°16.355 2°54.639 226 3.9 214 13
2011-10-10 09:40:54 51°16.305 2°54.563 238.7 4.2 231 13.6
2011-10-10 09:41:54 51°16.262 2°54.445 238.1 5.6 234 14.7
2011-10-10 09:42:54 51°16.214 2°54.317 254.1 5.1 263 12.7
2011-10-10 09:43:54 51°16.237 2°54.248 286.1 2 -999 12.6
2011-10-10 09:44:54 51°16.268 2°54.284 306.4 2.6 51 13.1
2011-10-10 09:45:54 51°16.293 2°54.353 334.8 2.9 66 13.9
2011-10-10 09:46:54 51°16.313 2°54.429 356 2.9 66 13.1
2011-10-10 09:47:54 51°16.367 2°54.455 301.5 3.1 342 14.1
2011-10-10 09:48:54 51°16.393 2°54.428 267.9 1.1 26 13.5
2011-10-10 09:49:57 51°16.417 2°54.46 273.1 2.1 46 13.3
2011-10-10 09:50:57 51°16.451 2°54.473 288.5 2.7 344 13
2011-10-10 09:51:55 51°16.467 2°54.43 256.6 2.1 280 13.4
2011-10-10 09:52:54 51°16.446 2°54.327 247.2 5.1 248 14.5
2011-10-10 09:53:54 51°16.404 2°54.159 246.9 7.8 246 14.5
2011-10-10 09:54:54 51°16.359 2°53.96 246.2 7.9 248 13.4
2011-10-10 09:55:54 51°16.292 2°53.766 238.6 8.7 239 14.5
2011-10-10 09:56:54 51°16.211 2°53.59 233.4 7.5 229 -999
2011-10-10 09:57:54 51°16.125 2°53.433 232.7 8.3 232 14.4
2011-10-10 09:58:54 51°16.031 2°53.293 215.7 8.5 200 15.8
2011-10-10 09:59:54 51°15.906 2°53.293 163.5 8.2 147 14.1
2011-10-10 10:00:54 51°15.798 2°53.485 146.1 10 138 15.2
2011-10-10 10:01:54 51°15.684 2°53.679 147.6 9.7 137 14.8
2011-10-10 10:02:54 51°15.566 2°53.86 148.5 9.9 135 14.6
2011-10-10 10:03:54 51°15.45 2°54.042 150.5 9.4 142 13.2
2011-10-10 10:04:54 51°15.335 2°54.226 152.7 9.3 142 12.1
2011-10-10 10:05:54 51°15.209 2°54.399 157.3 10.1 139 11.8
2011-10-10 10:06:55 51°15.058 2°54.543 165.5 10.4 149 -999
2011-10-10 10:07:54 51°14.909 2°54.713 156.2 11.2 142 13.1
2011-10-10 10:08:54 51°14.754 2°54.891 160.9 11.3 144 13
2011-10-10 10:09:54 51°14.592 2°55.037 167.7 11.8 147 14.9
2011-10-10 10:10:54 51°14.42 2°55.135 150.9 11.3 149 13.3
2011-10-10 10:11:55 51°14.27 2°55.293 145.9 9.1 146 -999
2011-10-10 10:12:54 51°14.159 2°55.401 151.4 7.4 152 13.7
2011-10-10 10:13:54 51°14.05 2°55.48 156.1 6.7 156 13.9
2011-10-10 10:14:54 51°13.949 2°55.549 156.9 6.6 158 14.3
2011-10-10 10:15:54 51°13.853 2°55.617 156.8 6 156 14.3
2011-10-10 10:16:54 51°13.773 2°55.686 144.5 5 144 14.3
2011-10-10 10:17:54 51°13.722 2°55.778 127.6 4.3 125 15.2
2011-10-10 10:18:54 51°13.689 2°55.873 116.4 4 115 11.7
2011-10-10 10:19:54 51°13.685 2°55.899 121.1 0.1 41 11.2